createdAt,value
2018-04-08T00:01:41.961Z,19.13
2018-04-08T00:04:09.596Z,18.30
2018-04-08T00:06:37.123Z,19.60
2018-04-08T00:09:05.583Z,20.50
2018-04-08T00:11:33.874Z,17.50
2018-04-08T00:14:01.434Z,18.40
2018-04-08T00:16:29.566Z,26.60
2018-04-08T00:18:57.130Z,25.90
2018-04-08T00:21:24.692Z,23.70
2018-04-08T00:23:52.222Z,18.43
2018-04-08T00:26:19.722Z,18.33
2018-04-08T00:28:47.217Z,21.50
2018-04-08T00:31:14.777Z,21.60
2018-04-08T00:33:42.324Z,19.43
2018-04-08T00:36:09.885Z,26.30
2018-04-08T00:38:37.451Z,25.17
2018-04-08T00:41:05.110Z,25.90
2018-04-08T00:43:32.650Z,21.33
2018-04-08T00:46:00.218Z,30.00
2018-04-08T00:48:28.377Z,24.53
2018-04-08T00:50:55.930Z,24.77
2018-04-08T00:53:23.834Z,21.10
2018-04-08T00:55:51.406Z,18.30
2018-04-08T00:58:18.941Z,22.43
2018-04-08T01:00:47.393Z,20.90
2018-04-08T01:03:15.052Z,19.17
2018-04-08T01:05:42.591Z,18.83
2018-04-08T01:08:10.155Z,20.03
2018-04-08T01:10:37.722Z,18.00
2018-04-08T01:13:05.381Z,18.77
2018-04-08T01:15:32.932Z,16.30
2018-04-08T01:18:00.412Z,16.63
2018-04-08T01:20:28.077Z,16.77
2018-04-08T01:22:55.571Z,15.80
2018-04-08T01:25:23.061Z,17.27
2018-04-08T01:27:50.588Z,16.30
2018-04-08T01:30:18.084Z,19.63
2018-04-08T01:32:45.573Z,15.20
2018-04-08T01:35:13.602Z,16.60
2018-04-08T01:37:43.087Z,16.10
2018-04-08T01:40:10.659Z,16.90
2018-04-08T01:42:38.196Z,17.10
2018-04-08T01:45:06.045Z,18.00
2018-04-08T01:47:33.673Z,18.00
2018-04-08T01:50:01.183Z,18.73
2018-04-08T01:52:28.694Z,18.30
2018-04-08T01:54:56.227Z,18.40
2018-04-08T01:57:23.832Z,17.87
2018-04-08T01:59:51.344Z,16.73
2018-04-08T02:02:21.391Z,17.30
2018-04-08T02:04:48.965Z,16.57
2018-04-08T02:07:16.486Z,15.60
2018-04-08T02:09:44.030Z,17.90
2018-04-08T02:12:11.574Z,16.00
2018-04-08T02:14:40.078Z,16.03
2018-04-08T02:17:08.057Z,15.93
2018-04-08T02:19:36.097Z,15.80
2018-04-08T02:22:03.683Z,15.13
2018-04-08T02:24:32.735Z,15.97
2018-04-08T02:27:00.265Z,14.53
2018-04-08T02:29:27.817Z,17.80
2018-04-08T02:31:56.158Z,23.80
2018-04-08T02:34:25.363Z,19.80
2018-04-08T02:36:53.789Z,16.87
2018-04-08T02:39:21.509Z,15.03
2018-04-08T02:41:49.046Z,16.00
2018-04-08T02:44:17.300Z,15.40
2018-04-08T02:46:46.470Z,15.90
2018-04-08T02:49:14.201Z,15.57
2018-04-08T02:51:41.750Z,16.73
2018-04-08T02:54:09.355Z,14.40
2018-04-08T02:56:37.282Z,16.17
2018-04-08T02:59:05.324Z,16.03
2018-04-08T03:01:33.196Z,16.83
2018-04-08T03:04:00.753Z,16.90
2018-04-08T03:06:28.278Z,15.63
2018-04-08T03:08:55.825Z,17.70
2018-04-08T03:11:23.614Z,15.90
2018-04-08T03:13:52.128Z,14.47
2018-04-08T03:16:19.824Z,16.47
2018-04-08T03:18:47.391Z,18.23
2018-04-08T03:21:14.969Z,16.13
2018-04-08T03:23:42.510Z,18.63
2018-04-08T03:26:10.019Z,17.40
2018-04-08T03:28:37.522Z,18.40
2018-04-08T03:31:05.008Z,18.23
2018-04-08T03:33:32.499Z,17.87
2018-04-08T03:36:00.945Z,17.93
2018-04-08T03:38:28.439Z,19.10
2018-04-08T03:40:55.956Z,18.47
2018-04-08T03:43:23.807Z,16.10
2018-04-08T03:45:51.830Z,18.93
2018-04-08T03:48:19.385Z,18.23
2018-04-08T03:50:46.923Z,17.87
2018-04-08T03:53:14.454Z,16.80
2018-04-08T03:55:42.009Z,17.13
2018-04-08T03:58:09.668Z,17.87
2018-04-08T04:00:38.486Z,15.20
2018-04-08T04:03:06.180Z,22.60
2018-04-08T04:05:33.724Z,21.70
2018-04-08T04:08:01.296Z,18.33
2018-04-08T04:10:28.832Z,16.23
2018-04-08T04:12:56.366Z,16.60
2018-04-08T04:15:23.925Z,17.67
2018-04-08T04:17:51.467Z,26.83
2018-04-08T04:20:30.672Z,22.30
2018-04-08T04:23:10.098Z,20.97
2018-04-08T04:28:37.352Z,20.50
2018-04-08T04:31:04.922Z,22.27
2018-04-08T04:33:32.793Z,19.13
2018-04-08T04:36:00.300Z,20.27
2018-04-08T04:38:28.945Z,20.40
2018-04-08T04:40:56.597Z,22.00
2018-04-08T04:43:24.153Z,21.53
2018-04-08T04:45:53.134Z,20.20
2018-04-08T04:48:20.751Z,20.70
2018-04-08T04:50:48.296Z,20.77
2018-04-08T04:53:15.786Z,22.17
2018-04-08T04:55:43.270Z,20.50
2018-04-08T04:58:10.768Z,19.87
2018-04-08T05:00:39.207Z,18.17
2018-04-08T05:03:06.787Z,20.80
2018-04-08T05:05:34.332Z,22.50
2018-04-08T05:08:01.874Z,19.30
2018-04-08T05:10:29.472Z,19.50
2018-04-08T05:12:57.169Z,21.70
2018-04-08T05:15:24.693Z,23.07
2018-04-08T05:17:52.255Z,22.20
2018-04-08T05:20:19.797Z,21.43
2018-04-08T05:22:47.335Z,21.13
2018-04-08T05:25:14.891Z,22.17
2018-04-08T05:27:44.053Z,22.50
2018-04-08T05:30:11.630Z,23.40
2018-04-08T05:32:39.189Z,17.87
2018-04-08T05:35:06.759Z,17.50
2018-04-08T05:37:35.009Z,18.50
2018-04-08T05:40:02.573Z,17.10
2018-04-08T05:42:30.121Z,22.57
2018-04-08T05:44:57.688Z,19.57
2018-04-08T05:47:25.234Z,20.47
2018-04-08T05:49:52.773Z,19.57
2018-04-08T05:52:20.351Z,21.13
2018-04-08T05:54:47.881Z,21.53
2018-04-08T05:57:16.090Z,20.63
2018-04-08T05:59:44.439Z,18.47
2018-04-08T06:02:12.133Z,16.47
2018-04-08T06:04:41.299Z,18.20
2018-04-08T06:07:09.083Z,18.83
2018-04-08T06:09:37.453Z,16.10
2018-04-08T06:12:05.940Z,18.20
2018-04-08T06:14:34.653Z,21.07
2018-04-08T06:17:02.200Z,18.23
2018-04-08T06:19:29.740Z,22.30
2018-04-08T06:21:59.208Z,18.37
2018-04-08T06:24:28.386Z,20.13
2018-04-08T06:29:46.081Z,17.67
2018-04-08T06:32:13.587Z,18.93
2018-04-08T06:34:41.096Z,18.40
2018-04-08T06:37:08.591Z,19.30
2018-04-08T06:39:36.076Z,17.67
2018-04-08T06:42:05.135Z,16.37
2018-04-08T06:44:34.455Z,16.77
2018-04-08T06:47:02.055Z,17.77
2018-04-08T06:49:29.658Z,16.80
2018-04-08T06:51:57.204Z,18.20
2018-04-08T06:54:24.815Z,17.03
2018-04-08T06:56:52.541Z,16.90
2018-04-08T06:59:20.034Z,16.60
2018-04-08T07:01:47.571Z,17.83
2018-04-08T07:04:15.202Z,16.00
2018-04-08T07:06:42.681Z,17.30
2018-04-08T07:09:10.427Z,16.73
2018-04-08T07:11:38.220Z,15.93
2018-04-08T07:14:05.703Z,18.23
2018-04-08T07:16:33.199Z,16.47
2018-04-08T07:19:00.716Z,16.23
2018-04-08T07:21:28.230Z,16.00
2018-04-08T07:23:55.718Z,15.87
2018-04-08T07:26:23.216Z,15.33
2018-04-08T07:28:51.198Z,14.50
2018-04-08T07:31:18.981Z,16.20
2018-04-08T07:33:46.486Z,15.23
2018-04-08T07:36:14.002Z,15.70
2018-04-08T07:38:41.492Z,14.37
2018-04-08T07:41:09.685Z,14.40
2018-04-08T07:43:37.236Z,14.20
2018-04-08T07:46:04.792Z,14.37
2018-04-08T07:48:33.207Z,13.67
2018-04-08T07:51:00.834Z,13.30
2018-04-08T07:53:28.578Z,13.27
2018-04-08T07:55:56.143Z,13.50
2018-04-08T07:58:23.682Z,12.07
2018-04-08T08:00:51.215Z,13.57
2018-04-08T08:03:19.149Z,12.33
2018-04-08T08:05:46.698Z,14.43
2018-04-08T08:08:14.442Z,12.87
2018-04-08T08:10:43.127Z,13.93
2018-04-08T08:13:10.861Z,13.27
2018-04-08T08:15:38.671Z,11.30
2018-04-08T08:18:06.773Z,11.43
2018-04-08T08:20:34.741Z,12.60
2018-04-08T08:23:02.260Z,12.50
2018-04-08T08:25:29.753Z,12.87
2018-04-08T08:27:57.238Z,13.50
2018-04-08T08:30:24.716Z,12.33
2018-04-08T08:32:52.230Z,12.43
2018-04-08T08:35:20.225Z,10.53
2018-04-08T08:37:49.561Z,11.20
2018-04-08T08:40:17.143Z,12.63
2018-04-08T08:42:44.674Z,11.50
2018-04-08T08:45:12.528Z,11.13
2018-04-08T08:47:40.044Z,10.67
2018-04-08T08:53:12.296Z,9.93
2018-04-08T08:55:39.888Z,10.17
2018-04-08T08:58:07.425Z,9.87
2018-04-08T09:00:34.951Z,9.63
2018-04-08T09:03:02.522Z,9.17
2018-04-08T09:20:35.738Z,7.63
2018-04-08T09:23:21.951Z,8.50
2018-04-08T09:26:01.217Z,8.17
2018-04-08T09:28:28.713Z,9.03
2018-04-08T09:30:56.204Z,7.80
2018-04-08T09:33:24.798Z,8.33
2018-04-08T09:35:52.603Z,6.90
2018-04-08T09:38:20.301Z,8.23
2018-04-08T09:40:47.845Z,6.93
2018-04-08T09:43:15.795Z,7.03
2018-04-08T09:45:43.344Z,7.23
2018-04-08T09:48:10.887Z,6.80
2018-04-08T09:50:40.044Z,7.30
2018-04-08T09:53:07.658Z,7.13
2018-04-08T09:55:35.264Z,5.70
2018-04-08T09:58:03.757Z,6.50
2018-04-08T10:00:38.266Z,6.43
2018-04-08T10:03:11.920Z,6.53
2018-04-08T10:05:39.608Z,5.83
2018-04-08T10:08:07.083Z,5.50
2018-04-08T10:10:38.424Z,5.80
2018-04-08T10:13:06.386Z,5.50
2018-04-08T10:15:34.789Z,6.03
2018-04-08T10:18:07.366Z,5.23
2018-04-08T10:20:39.077Z,4.77
2018-04-08T10:23:07.261Z,7.03
2018-04-08T10:25:34.861Z,5.90
2018-04-08T10:28:02.594Z,5.90
2018-04-08T10:30:30.122Z,5.70
2018-04-08T10:32:57.613Z,5.20
2018-04-08T10:35:25.472Z,5.60
2018-04-08T10:37:57.990Z,5.37
2018-04-08T10:40:25.601Z,5.67
2018-04-08T10:42:53.185Z,5.40
2018-04-08T10:45:20.822Z,5.60
2018-04-08T10:47:50.039Z,5.50
2018-04-08T10:50:17.710Z,4.70
2018-04-08T10:52:45.494Z,4.90
2018-04-08T10:57:51.172Z,5.10
2018-04-08T11:00:18.722Z,5.03
2018-04-08T11:02:46.277Z,4.90
2018-04-08T11:05:13.897Z,5.37
2018-04-08T11:07:41.503Z,4.93
2018-04-08T11:10:09.112Z,5.10
2018-04-08T11:12:36.660Z,5.17
2018-04-08T11:15:04.266Z,5.60
2018-04-08T11:17:31.843Z,4.93
2018-04-08T11:19:59.408Z,4.73
2018-04-08T11:22:28.298Z,5.40
2018-04-08T11:24:56.254Z,5.40
2018-04-08T11:27:24.121Z,5.80
2018-04-08T11:29:51.670Z,5.43
2018-04-08T11:32:19.293Z,5.03
2018-04-08T11:34:46.852Z,4.77
2018-04-08T11:37:14.400Z,5.70
2018-04-08T11:39:41.981Z,5.10
2018-04-08T11:42:09.555Z,5.63
2018-04-08T11:44:38.218Z,4.90
2018-04-08T11:47:06.431Z,5.90
2018-04-08T11:49:33.942Z,5.20
2018-04-08T11:52:01.438Z,3.70
2018-04-08T11:54:28.924Z,4.90
2018-04-08T11:56:56.430Z,4.50
2018-04-08T11:59:24.135Z,4.87
2018-04-08T12:01:51.775Z,5.07
2018-04-08T12:04:19.336Z,4.93
2018-04-08T12:06:46.883Z,5.00
2018-04-08T12:09:14.463Z,4.53
2018-04-08T12:11:42.013Z,3.40
2018-04-08T12:14:09.565Z,4.07
2018-04-08T12:16:37.161Z,3.80
2018-04-08T12:19:04.785Z,4.13
2018-04-08T12:21:33.580Z,4.90
2018-04-08T12:24:01.151Z,4.47
2018-04-08T12:29:32.787Z,5.03
2018-04-08T12:32:00.264Z,4.10
2018-04-08T12:34:27.738Z,5.00
2018-04-08T12:36:55.248Z,4.47
2018-04-08T12:39:22.718Z,4.47
2018-04-08T12:41:50.473Z,4.63
2018-04-08T12:44:18.006Z,4.60
2018-04-08T12:46:45.484Z,4.87
2018-04-08T12:49:13.046Z,4.37
2018-04-08T12:51:40.807Z,4.20
2018-04-08T12:54:08.572Z,4.50
2018-04-08T12:56:38.342Z,4.33
2018-04-08T12:59:06.200Z,4.50
2018-04-08T13:01:33.755Z,5.27
2018-04-08T13:04:01.278Z,4.50
2018-04-08T13:06:29.771Z,4.80
2018-04-08T13:08:57.319Z,4.53
2018-04-08T13:11:25.075Z,4.10
2018-04-08T13:13:53.507Z,4.17
2018-04-08T13:16:21.052Z,3.70
2018-04-08T13:18:48.593Z,3.90
2018-04-08T13:21:16.077Z,4.23
2018-04-08T13:23:43.556Z,4.60
2018-04-08T13:26:11.039Z,4.17
2018-04-08T13:28:38.547Z,3.70
2018-04-08T13:31:07.048Z,4.73
2018-04-08T13:33:34.948Z,4.53
2018-04-08T13:36:04.064Z,3.97
2018-04-08T13:38:34.090Z,4.60
2018-04-08T13:41:02.721Z,3.70
2018-04-08T13:43:30.533Z,3.60
2018-04-08T13:46:00.482Z,4.20
2018-04-08T13:48:28.205Z,4.63
2018-04-08T13:50:55.727Z,3.53
2018-04-08T13:53:23.564Z,4.40
2018-04-08T13:55:52.140Z,4.70
2018-04-08T13:58:19.617Z,4.30
2018-04-08T14:00:47.187Z,4.17
2018-04-08T14:03:14.909Z,3.83
2018-04-08T14:05:44.959Z,4.00
2018-04-08T14:08:12.724Z,4.60
2018-04-08T14:10:42.412Z,4.30
2018-04-08T14:13:10.140Z,4.80
2018-04-08T14:15:37.684Z,4.40
2018-04-08T14:18:05.228Z,4.10
2018-04-08T14:20:32.710Z,5.00
2018-04-08T14:23:00.215Z,4.17
2018-04-08T14:25:27.910Z,5.00
2018-04-08T14:27:55.811Z,4.00
2018-04-08T14:30:23.365Z,4.70
2018-04-08T14:32:52.017Z,4.33
2018-04-08T14:35:19.538Z,4.40
2018-04-08T14:37:50.857Z,3.90
2018-04-08T14:40:18.932Z,4.47
2018-04-08T14:42:46.599Z,3.37
2018-04-08T14:45:14.365Z,4.80
2018-04-08T14:47:42.027Z,3.57
2018-04-08T14:50:17.530Z,4.47
2018-04-08T14:52:51.384Z,3.73
2018-04-08T14:55:22.101Z,4.60
2018-04-08T14:57:54.517Z,3.93
2018-04-08T15:00:22.271Z,4.80
2018-04-08T15:02:49.890Z,4.43
2018-04-08T15:05:22.339Z,3.37
2018-04-08T15:07:50.278Z,4.73
2018-04-08T15:10:17.835Z,3.70
2018-04-08T15:12:45.482Z,3.50
2018-04-08T15:15:13.095Z,3.70
2018-04-08T15:17:40.994Z,3.90
2018-04-08T15:20:08.542Z,3.70
2018-04-08T15:22:36.630Z,4.03
2018-04-08T15:25:04.320Z,4.40
2018-04-08T15:27:37.761Z,4.40
2018-04-08T15:30:05.282Z,3.47
2018-04-08T15:32:33.977Z,3.80
2018-04-08T15:35:01.511Z,4.30
2018-04-08T15:37:29.048Z,3.20
2018-04-08T15:39:56.698Z,3.57
2018-04-08T15:42:24.349Z,4.20
2018-04-08T15:44:51.885Z,3.23
2018-04-08T15:47:19.484Z,4.10
2018-04-08T15:49:50.570Z,3.63
2018-04-08T15:52:18.756Z,3.57
2018-04-08T15:54:46.415Z,3.67
2018-04-08T15:57:13.995Z,3.50
2018-04-08T15:59:41.573Z,3.50
2018-04-08T16:02:09.177Z,3.30
2018-04-08T16:04:36.852Z,4.50
2018-04-08T16:07:04.508Z,3.80
2018-04-08T16:09:32.087Z,3.83
2018-04-08T16:12:00.505Z,3.30
2018-04-08T16:14:31.510Z,3.60
2018-04-08T16:16:59.077Z,4.27
2018-04-08T16:19:26.678Z,3.60
2018-04-08T16:21:54.258Z,3.17
2018-04-08T16:24:21.830Z,4.63
2018-04-08T16:26:49.438Z,4.93
2018-04-08T16:29:17.219Z,3.60
2018-04-08T16:31:46.460Z,3.93
2018-04-08T16:34:14.281Z,4.10
2018-04-08T16:36:41.873Z,4.97
2018-04-08T16:39:09.460Z,5.20
2018-04-08T16:41:37.062Z,4.70
2018-04-08T16:44:04.611Z,4.87
2018-04-08T16:46:33.301Z,4.20
2018-04-08T16:49:00.819Z,4.47
2018-04-08T16:51:28.361Z,4.63
2018-04-08T16:53:57.940Z,5.03
2018-04-08T16:56:25.479Z,4.30
2018-04-08T16:58:53.005Z,3.80
2018-04-08T17:01:20.552Z,4.17
2018-04-08T17:03:48.085Z,4.73
2018-04-08T17:06:15.611Z,4.37
2018-04-08T17:08:43.160Z,4.93
2018-04-08T17:11:10.900Z,4.70
2018-04-08T17:13:38.501Z,4.83
2018-04-08T17:16:06.029Z,3.67
2018-04-08T17:18:34.342Z,4.80
2018-04-08T17:21:01.845Z,3.80
2018-04-08T17:23:29.355Z,4.57
2018-04-08T17:25:58.280Z,4.50
2018-04-08T17:28:26.019Z,5.00
2018-04-08T17:30:53.707Z,4.73
2018-04-08T17:33:21.704Z,4.37
2018-04-08T17:35:49.540Z,4.87
2018-04-08T17:38:17.132Z,4.77
2018-04-08T17:40:45.330Z,5.00
2018-04-08T17:43:12.974Z,3.53
2018-04-08T17:45:40.497Z,3.80
2018-04-08T17:48:08.071Z,4.20
2018-04-08T17:50:43.366Z,4.37
2018-04-08T17:53:11.320Z,4.20
2018-04-08T17:55:39.498Z,4.67
2018-04-08T17:58:07.043Z,4.87
2018-04-08T18:00:34.838Z,4.80
2018-04-08T18:03:02.490Z,4.97
2018-04-08T18:05:30.024Z,5.30
2018-04-08T18:07:57.675Z,49.90
2018-04-08T18:10:25.235Z,18.73
2018-04-08T18:12:52.922Z,6.00
2018-04-08T18:15:21.155Z,5.50
2018-04-08T18:17:48.776Z,5.80
2018-04-08T18:20:16.307Z,5.20
2018-04-08T18:22:45.254Z,6.27
2018-04-08T18:25:13.230Z,5.23
2018-04-08T18:27:43.229Z,5.17
2018-04-08T18:30:10.875Z,4.60
2018-04-08T18:32:40.008Z,5.60
2018-04-08T18:35:07.559Z,3.97
2018-04-08T18:37:35.215Z,5.90
2018-04-08T18:40:04.471Z,5.10
2018-04-08T18:42:40.130Z,5.90
2018-04-08T18:45:09.384Z,6.77
2018-04-08T18:47:38.292Z,5.97
2018-04-08T18:50:14.610Z,6.53
2018-04-08T18:52:42.540Z,5.77
2018-04-08T18:55:10.121Z,6.77
2018-04-08T18:57:38.974Z,6.10
2018-04-08T19:00:06.602Z,5.67
2018-04-08T19:02:34.148Z,7.20
2018-04-08T19:05:01.733Z,7.03
2018-04-08T19:07:29.595Z,7.37
2018-04-08T19:09:57.374Z,5.57
2018-04-08T19:12:24.865Z,5.67
2018-04-08T19:14:58.054Z,6.10
2018-04-08T19:17:31.754Z,5.30
2018-04-08T19:19:59.310Z,6.33
2018-04-08T19:22:27.914Z,5.83
2018-04-08T19:24:56.169Z,7.57
2018-04-08T19:27:29.799Z,7.83
2018-04-08T19:29:57.342Z,7.07
2018-04-08T19:32:24.920Z,6.33
2018-04-08T19:34:52.451Z,6.70
2018-04-08T19:37:19.980Z,10.40
2018-04-08T19:39:47.593Z,9.60
2018-04-08T19:42:15.155Z,26.20
2018-04-08T19:44:42.685Z,7.23
2018-04-08T19:47:11.223Z,8.67
2018-04-08T19:49:38.871Z,15.57
2018-04-08T19:52:06.530Z,38.77
2018-04-08T19:54:34.431Z,18.43
2018-04-08T19:57:01.947Z,23.67
2018-04-08T19:59:30.444Z,37.00
2018-04-08T20:01:58.161Z,16.43
2018-04-08T20:04:25.794Z,16.23
2018-04-08T20:06:53.318Z,24.47
2018-04-08T20:09:20.872Z,7.60
2018-04-08T20:11:48.371Z,7.17
2018-04-08T20:14:15.960Z,6.70
2018-04-08T20:16:43.775Z,7.10
2018-04-08T20:19:11.649Z,7.90
2018-04-08T20:21:39.259Z,10.80
2018-04-08T20:24:06.816Z,12.40
2018-04-08T20:26:34.466Z,15.63
2018-04-08T20:29:02.060Z,6.87
2018-04-08T20:31:30.636Z,6.90
2018-04-08T20:33:58.197Z,7.20
2018-04-08T20:36:25.969Z,7.10
2018-04-08T20:38:53.479Z,6.13
2018-04-08T20:41:21.003Z,7.83
2018-04-08T20:43:49.695Z,10.50
2018-04-08T20:46:17.502Z,9.30
2018-04-08T20:48:45.061Z,8.77
2018-04-08T20:51:12.615Z,7.00
2018-04-08T20:53:41.122Z,7.17
2018-04-08T20:56:08.614Z,7.97
2018-04-08T20:58:36.155Z,7.67
2018-04-08T21:03:54.202Z,7.63
2018-04-08T21:09:11.955Z,7.60
2018-04-08T21:11:39.440Z,8.10
2018-04-08T21:14:06.982Z,9.30
2018-04-08T21:16:34.531Z,7.97
2018-04-08T21:19:02.103Z,9.20
2018-04-08T21:21:29.646Z,8.67
2018-04-08T21:23:57.792Z,8.27
2018-04-08T21:26:25.335Z,18.97
2018-04-08T21:28:52.955Z,16.03
2018-04-08T21:31:21.012Z,9.40
2018-04-08T21:33:48.590Z,7.67
2018-04-08T21:39:06.645Z,8.20
2018-04-08T21:41:34.137Z,8.90
2018-04-08T21:44:01.651Z,7.50
2018-04-08T21:46:29.233Z,7.80
2018-04-08T21:48:56.884Z,9.90
2018-04-08T21:51:24.979Z,10.23
2018-04-08T21:53:52.549Z,9.13
2018-04-08T21:56:20.201Z,8.43
2018-04-08T21:58:47.874Z,8.60
2018-04-08T22:01:15.448Z,7.97
2018-04-08T22:03:45.032Z,8.10
2018-04-08T22:06:12.594Z,7.90
2018-04-08T22:08:40.161Z,7.77
2018-04-08T22:11:07.989Z,9.77
2018-04-08T22:13:37.090Z,12.20
2018-04-08T22:16:04.624Z,7.97
2018-04-08T22:18:34.459Z,7.10
2018-04-08T22:21:02.090Z,8.63
2018-04-08T22:23:30.616Z,6.40
2018-04-08T22:25:58.197Z,7.07
2018-04-08T22:28:25.726Z,8.63
2018-04-08T22:30:53.221Z,9.90
2018-04-08T22:33:20.963Z,7.43
2018-04-08T22:35:48.483Z,8.40
2018-04-08T22:38:16.026Z,7.43
2018-04-08T22:40:45.353Z,7.40
2018-04-08T22:43:12.902Z,7.20
2018-04-08T22:45:40.436Z,7.00
2018-04-08T22:48:08.017Z,8.00
2018-04-08T22:50:36.155Z,7.20
2018-04-08T22:53:03.777Z,7.50
2018-04-08T22:55:33.119Z,7.10
2018-04-08T22:58:00.662Z,7.70
2018-04-08T23:00:28.194Z,6.43
2018-04-08T23:02:55.698Z,5.97
2018-04-08T23:05:23.532Z,6.40
2018-04-08T23:07:51.011Z,6.37
2018-04-08T23:10:18.477Z,6.80
2018-04-08T23:12:45.983Z,6.67
2018-04-08T23:15:13.770Z,6.60
2018-04-08T23:17:41.456Z,8.37
2018-04-08T23:20:09.000Z,7.60
2018-04-08T23:22:36.537Z,7.50
2018-04-08T23:25:04.084Z,6.23
2018-04-08T23:27:33.068Z,6.10
2018-04-08T23:30:00.591Z,9.37
2018-04-08T23:32:28.416Z,7.70
2018-04-08T23:34:55.917Z,6.67
2018-04-08T23:37:23.612Z,5.50
2018-04-08T23:39:51.151Z,6.07
2018-04-08T23:45:09.106Z,6.20
2018-04-08T23:47:36.655Z,5.80
2018-04-08T23:50:04.206Z,6.30
2018-04-08T23:52:31.738Z,8.73
2018-04-08T23:54:59.293Z,7.20
2018-04-08T23:57:26.838Z,7.03
2018-04-08T23:59:54.367Z,5.60
